Spring Lake Park, Minnesota
Current Conditions -  °F | °C
As of 9:45 AM on Sunday 23 Nov 2014 (Local Time) from KANE Reporting Station
Moderate Fog Moderate Fog  
Wind Chill: 45°   Ceiling: 500
Heat Index: 45°   Visibility: 0.06mi
Dew Point: 45°   Wind: 0mph
Humidity: 100%   Direction: NA
Pressure: 29.45"   Gusts: NA
Location:  45.0968°N, 93.2542°W
Report Text: KANE 231545Z 00000KT 1/16SM FG OVC005 07/07 A2945
Loading
Personal Weather Stations






























Interactive Weather Map New forecast layout! Learn more

10-Day Weather Forecast

Advertisements
Track Severe Weather on mobile